createdAt,value
2019-05-17T00:00:08.501Z,15.17
2019-05-17T00:02:37.639Z,13.00
2019-05-17T00:05:08.194Z,13.57
2019-05-17T00:07:37.110Z,13.47
2019-05-17T00:10:07.457Z,13.90
2019-05-17T00:12:36.840Z,13.73
2019-05-17T00:15:07.674Z,14.30
2019-05-17T00:17:37.833Z,12.93
2019-05-17T00:20:08.134Z,14.07
2019-05-17T00:22:36.822Z,12.23
2019-05-17T00:25:08.612Z,12.13
2019-05-17T00:27:37.724Z,12.70
2019-05-17T00:30:08.054Z,12.33
2019-05-17T00:32:37.030Z,14.00
2019-05-17T00:35:07.348Z,14.40
2019-05-17T00:37:37.384Z,15.20
2019-05-17T00:40:07.681Z,14.00
2019-05-17T00:42:37.219Z,15.13
2019-05-17T00:45:08.340Z,14.83
2019-05-17T00:47:37.593Z,16.00
2019-05-17T00:50:07.817Z,14.80
2019-05-17T00:52:37.041Z,16.27
2019-05-17T00:55:08.865Z,15.60
2019-05-17T00:57:37.318Z,14.00
2019-05-17T01:00:09.026Z,16.50
2019-05-17T01:02:37.530Z,15.80
2019-05-17T01:05:08.857Z,14.10
2019-05-17T01:07:37.802Z,16.77
2019-05-17T01:10:07.685Z,16.90
2019-05-17T01:12:36.579Z,16.23
2019-05-17T01:15:07.509Z,17.50
2019-05-17T01:17:36.665Z,18.20
2019-05-17T01:20:08.103Z,18.50
2019-05-17T01:22:36.822Z,17.83
2019-05-17T01:25:07.570Z,17.47
2019-05-17T01:27:38.016Z,18.37
2019-05-17T01:30:08.127Z,16.90
2019-05-17T01:32:37.471Z,18.27
2019-05-17T01:35:07.290Z,17.87
2019-05-17T01:37:37.122Z,18.53
2019-05-17T01:40:07.825Z,17.93
2019-05-17T01:42:37.451Z,17.33
2019-05-17T01:45:07.485Z,18.60
2019-05-17T01:47:36.837Z,18.00
2019-05-17T01:50:07.858Z,18.97
2019-05-17T01:52:36.951Z,19.90
2019-05-17T01:55:07.945Z,18.57
2019-05-17T01:57:37.164Z,19.73
2019-05-17T02:00:08.811Z,18.73
2019-05-17T02:02:38.855Z,18.87
2019-05-17T02:05:08.958Z,20.37
2019-05-17T02:07:37.436Z,19.70
2019-05-17T02:10:07.503Z,18.43
2019-05-17T02:12:37.210Z,17.90
2019-05-17T02:15:08.812Z,20.73
2019-05-17T02:17:37.498Z,20.73
2019-05-17T02:20:08.963Z,20.40
2019-05-17T02:22:37.464Z,20.50
2019-05-17T02:25:08.611Z,21.23
2019-05-17T02:27:41.302Z,20.70
2019-05-17T02:30:08.498Z,21.70
2019-05-17T02:32:37.936Z,20.67
2019-05-17T02:35:06.763Z,21.93
2019-05-17T02:37:35.198Z,22.70
2019-05-17T02:40:08.750Z,20.70
2019-05-17T02:42:37.313Z,21.60
2019-05-17T02:45:06.207Z,22.00
2019-05-17T02:47:34.630Z,23.00
2019-05-17T02:50:05.540Z,22.53
2019-05-17T02:52:33.232Z,22.33
2019-05-17T02:55:04.027Z,24.77
2019-05-17T02:57:34.703Z,22.90
2019-05-17T03:00:04.510Z,21.23
2019-05-17T03:02:34.110Z,22.47
2019-05-17T03:05:04.005Z,24.27
2019-05-17T03:07:32.738Z,22.40
2019-05-17T03:10:17.019Z,23.30
2019-05-17T03:12:32.856Z,22.67
2019-05-17T03:15:04.095Z,24.53
2019-05-17T03:17:33.763Z,23.83
2019-05-17T03:20:03.975Z,21.17
2019-05-17T03:22:33.351Z,23.20
2019-05-17T03:25:03.433Z,24.80
2019-05-17T03:27:33.721Z,24.00
2019-05-17T03:30:04.103Z,19.80
2019-05-17T03:32:36.147Z,22.80
2019-05-17T03:35:06.893Z,24.80
2019-05-17T03:37:37.728Z,22.83
2019-05-17T03:40:21.671Z,23.00
2019-05-17T03:42:34.907Z,23.93
2019-05-17T03:45:03.929Z,23.93
2019-05-17T03:47:33.506Z,26.07
2019-05-17T03:50:03.253Z,25.77
2019-05-17T03:52:33.357Z,26.67
2019-05-17T03:55:04.112Z,23.03
2019-05-17T03:57:32.513Z,23.07
2019-05-17T04:00:03.806Z,25.43
2019-05-17T04:02:32.714Z,24.50
2019-05-17T04:05:04.305Z,22.70
2019-05-17T04:07:32.862Z,22.10
2019-05-17T04:10:04.475Z,24.10
2019-05-17T04:12:32.758Z,21.37
2019-05-17T04:15:03.187Z,22.67
2019-05-17T04:17:32.753Z,25.00
2019-05-17T04:20:03.477Z,27.70
2019-05-17T04:22:33.156Z,27.10
2019-05-17T04:25:02.992Z,23.63
2019-05-17T04:27:32.708Z,24.60
2019-05-17T04:30:03.598Z,23.10
2019-05-17T04:32:33.115Z,24.00
2019-05-17T04:35:03.634Z,27.37
2019-05-17T04:37:33.589Z,24.90
2019-05-17T04:40:03.527Z,24.33
2019-05-17T04:42:33.098Z,28.13
2019-05-17T04:45:03.651Z,24.67
2019-05-17T04:47:33.264Z,26.23
2019-05-17T04:50:03.939Z,24.13
2019-05-17T04:52:33.563Z,24.67
2019-05-17T04:55:04.041Z,12.97
2019-05-17T04:57:32.717Z,26.63
2019-05-17T05:00:04.229Z,24.33
2019-05-17T05:02:33.103Z,26.17
2019-05-17T05:05:03.238Z,25.00
2019-05-17T05:07:33.610Z,26.30
2019-05-17T05:10:02.962Z,27.00
2019-05-17T05:12:33.552Z,27.80
2019-05-17T05:15:03.566Z,26.60
2019-05-17T05:17:32.832Z,27.97
2019-05-17T05:20:02.815Z,29.50
2019-05-17T05:22:33.023Z,25.67
2019-05-17T05:25:02.146Z,28.20
2019-05-17T05:27:31.644Z,28.43
2019-05-17T05:30:00.182Z,30.17
2019-05-17T05:32:28.625Z,26.03
2019-05-17T05:34:57.102Z,28.87
2019-05-17T05:37:25.591Z,30.20
2019-05-17T05:39:54.679Z,30.10
2019-05-17T05:42:23.259Z,29.03
2019-05-17T05:44:52.226Z,29.77
2019-05-17T05:47:22.197Z,30.17
2019-05-17T05:49:52.076Z,29.67
2019-05-17T05:52:21.880Z,30.00
2019-05-17T05:54:52.046Z,29.40
2019-05-17T05:57:21.887Z,32.20
2019-05-17T05:59:51.788Z,31.43
2019-05-17T06:02:21.884Z,32.57
2019-05-17T06:04:51.816Z,29.97
2019-05-17T06:07:21.620Z,30.17
2019-05-17T06:09:51.786Z,30.20
2019-05-17T06:12:26.991Z,28.37
2019-05-17T06:14:52.372Z,29.07
2019-05-17T06:17:21.592Z,30.00
2019-05-17T06:19:51.695Z,28.57
2019-05-17T06:22:21.987Z,29.73
2019-05-17T06:24:52.010Z,30.43
2019-05-17T06:27:21.515Z,29.23
2019-05-17T06:29:51.469Z,28.20
2019-05-17T06:32:22.671Z,29.97
2019-05-17T06:34:51.517Z,31.77
2019-05-17T06:37:22.202Z,28.27
2019-05-17T06:39:52.492Z,27.80
2019-05-17T06:42:21.652Z,28.27
2019-05-17T06:44:52.377Z,28.40
2019-05-17T06:47:22.532Z,26.50
2019-05-17T06:49:53.489Z,25.43
2019-05-17T06:52:22.529Z,26.00
2019-05-17T06:54:52.439Z,30.97
2019-05-17T06:57:23.327Z,26.80
2019-05-17T06:59:51.303Z,26.13
2019-05-17T07:02:19.838Z,25.37
2019-05-17T07:04:48.256Z,24.90
2019-05-17T07:07:30.394Z,27.30
2019-05-17T07:10:00.671Z,19.43
2019-05-17T07:12:30.718Z,24.70
2019-05-17T07:15:01.632Z,22.70
2019-05-17T07:17:30.411Z,26.27
2019-05-17T07:19:59.775Z,25.60
2019-05-17T07:22:29.674Z,26.20
2019-05-17T07:24:59.744Z,22.47
2019-05-17T07:27:38.767Z,24.60
2019-05-17T07:29:59.246Z,25.80
2019-05-17T07:32:29.760Z,25.97
2019-05-17T07:35:00.006Z,26.13
2019-05-17T07:37:30.280Z,24.77
2019-05-17T07:40:04.500Z,23.63
2019-05-17T07:42:29.819Z,24.50
2019-05-17T07:45:00.317Z,20.20
2019-05-17T07:47:29.451Z,21.67
2019-05-17T07:50:00.709Z,20.47
2019-05-17T07:52:29.988Z,25.53
2019-05-17T07:55:02.370Z,24.70
2019-05-17T07:57:29.969Z,22.10
2019-05-17T08:00:00.011Z,20.67
2019-05-17T08:02:30.648Z,25.00
2019-05-17T08:05:00.500Z,25.17
2019-05-17T08:07:30.180Z,24.60
2019-05-17T08:10:00.183Z,21.10
2019-05-17T08:12:30.561Z,24.00
2019-05-17T08:14:59.812Z,22.60
2019-05-17T08:17:30.408Z,23.00
2019-05-17T08:20:00.529Z,20.30
2019-05-17T08:22:29.373Z,22.90
2019-05-17T08:24:59.939Z,19.40
2019-05-17T08:27:29.666Z,18.37
2019-05-17T08:29:59.791Z,17.10
2019-05-17T08:32:31.342Z,20.90
2019-05-17T08:35:00.292Z,21.10
2019-05-17T08:37:30.224Z,21.03
2019-05-17T08:40:00.087Z,20.30
2019-05-17T08:42:29.971Z,17.53
2019-05-17T08:45:00.224Z,17.00
2019-05-17T08:47:30.046Z,19.37
2019-05-17T08:50:00.414Z,18.00
2019-05-17T08:52:29.383Z,18.00
2019-05-17T08:55:00.170Z,17.07
2019-05-17T08:57:30.287Z,18.80
2019-05-17T09:00:00.521Z,18.13
2019-05-17T09:02:29.868Z,16.33
2019-05-17T09:05:00.445Z,16.73
2019-05-17T09:07:29.569Z,16.53
2019-05-17T09:09:58.369Z,16.73
2019-05-17T09:12:26.832Z,17.20
2019-05-17T09:14:55.276Z,13.33
2019-05-17T09:17:23.715Z,16.50
2019-05-17T09:19:54.354Z,16.97
2019-05-17T09:22:22.448Z,15.30
2019-05-17T09:24:51.161Z,13.03
2019-05-17T09:27:19.865Z,17.17
2019-05-17T09:29:49.721Z,16.23
2019-05-17T09:32:20.170Z,16.00
2019-05-17T09:34:49.794Z,18.53
2019-05-17T09:37:22.133Z,18.33
2019-05-17T09:39:49.233Z,18.93
2019-05-17T09:42:17.847Z,16.30
2019-05-17T09:44:46.300Z,18.70
2019-05-17T09:47:14.745Z,19.40
2019-05-17T09:49:43.172Z,16.20
2019-05-17T09:52:11.601Z,18.27
2019-05-17T09:54:45.013Z,15.80
2019-05-17T09:57:10.214Z,19.80
2019-05-17T09:59:40.581Z,18.73
2019-05-17T10:02:09.552Z,19.07
2019-05-17T10:04:39.531Z,13.33
2019-05-17T10:07:10.218Z,14.87
2019-05-17T10:09:39.977Z,15.27
2019-05-17T10:12:09.534Z,17.20
2019-05-17T10:14:38.189Z,16.13
2019-05-17T10:17:06.684Z,9.77
2019-05-17T10:19:35.132Z,14.97
2019-05-17T10:22:03.639Z,14.73
2019-05-17T10:24:37.896Z,13.83
2019-05-17T10:27:02.644Z,15.00
2019-05-17T10:29:31.117Z,10.67
2019-05-17T10:31:59.896Z,12.27
2019-05-17T10:34:29.438Z,9.27
2019-05-17T10:36:57.989Z,10.40
2019-05-17T10:39:26.427Z,10.20
2019-05-17T10:41:54.860Z,9.30
2019-05-17T10:44:23.333Z,12.20
2019-05-17T10:46:51.775Z,12.80
2019-05-17T10:49:20.309Z,11.57
2019-05-17T10:51:49.376Z,12.03
2019-05-17T10:54:20.548Z,11.20
2019-05-17T10:56:50.224Z,8.60
2019-05-17T10:59:20.264Z,11.50
2019-05-17T11:01:50.195Z,13.37
2019-05-17T11:04:19.724Z,12.13
2019-05-17T11:06:50.063Z,13.33
2019-05-17T11:09:20.492Z,12.23
2019-05-17T11:11:48.639Z,13.90
2019-05-17T11:14:17.101Z,13.70
2019-05-17T11:16:45.540Z,11.57
2019-05-17T11:19:13.991Z,12.87
2019-05-17T11:21:42.441Z,13.80
2019-05-17T11:24:10.893Z,8.23
2019-05-17T11:26:39.319Z,8.93
2019-05-17T11:29:07.901Z,13.17
2019-05-17T11:31:36.410Z,11.77
2019-05-17T11:34:04.856Z,11.30
2019-05-17T11:36:33.282Z,12.23
2019-05-17T11:39:01.736Z,12.37
2019-05-17T11:41:30.184Z,12.07
2019-05-17T11:43:58.631Z,11.43
2019-05-17T11:46:35.955Z,8.97
2019-05-17T11:48:57.240Z,7.10
2019-05-17T11:51:27.364Z,10.20
2019-05-17T11:53:56.011Z,10.50
2019-05-17T11:56:24.455Z,8.60
2019-05-17T11:58:52.949Z,10.70
2019-05-17T12:01:21.398Z,7.70
2019-05-17T12:03:49.822Z,9.90
2019-05-17T12:06:18.307Z,8.47
2019-05-17T12:08:46.750Z,8.83
2019-05-17T12:11:15.187Z,8.33
2019-05-17T12:13:43.797Z,9.17
2019-05-17T12:16:12.272Z,9.03
2019-05-17T12:18:40.690Z,8.80
2019-05-17T12:21:09.149Z,8.77
2019-05-17T12:23:37.658Z,9.10
2019-05-17T12:26:06.253Z,8.47
2019-05-17T12:28:34.688Z,7.97
2019-05-17T12:31:03.127Z,8.30
2019-05-17T12:33:31.562Z,8.63
2019-05-17T12:36:00.017Z,8.00
2019-05-17T12:38:28.452Z,7.53
2019-05-17T12:40:56.902Z,8.23
2019-05-17T12:43:25.330Z,6.97
2019-05-17T12:46:00.559Z,7.33
2019-05-17T12:48:23.930Z,7.70
2019-05-17T12:50:52.420Z,7.83
2019-05-17T12:53:20.889Z,6.97
2019-05-17T12:55:49.352Z,6.10
2019-05-17T12:58:17.779Z,7.27
2019-05-17T13:00:46.234Z,5.80
2019-05-17T13:03:14.669Z,5.20
2019-05-17T13:05:43.117Z,6.30
2019-05-17T13:08:11.576Z,6.40
2019-05-17T13:10:40.453Z,7.03
2019-05-17T13:13:09.773Z,6.80
2019-05-17T13:15:38.383Z,5.43
2019-05-17T13:18:06.898Z,5.90
2019-05-17T13:20:36.281Z,6.03
2019-05-17T13:23:05.121Z,5.40
2019-05-17T13:25:33.632Z,5.27
2019-05-17T13:28:02.097Z,6.43
2019-05-17T13:30:30.626Z,5.80
2019-05-17T13:32:59.127Z,5.67
2019-05-17T13:35:27.636Z,5.90
2019-05-17T13:37:56.062Z,5.40
2019-05-17T13:40:24.565Z,5.00
2019-05-17T13:42:53.035Z,4.90
2019-05-17T13:45:21.653Z,4.80
2019-05-17T13:47:50.166Z,4.30
2019-05-17T13:50:18.684Z,5.63
2019-05-17T13:52:47.100Z,5.57
2019-05-17T13:55:15.985Z,5.37
2019-05-17T13:57:44.484Z,4.53
2019-05-17T14:00:13.611Z,5.67
2019-05-17T14:02:42.085Z,4.10
2019-05-17T14:05:10.662Z,4.17
2019-05-17T14:07:39.116Z,4.37
2019-05-17T14:10:07.978Z,4.03
2019-05-17T14:12:36.412Z,3.87
2019-05-17T14:15:07.076Z,4.23
2019-05-17T14:17:35.595Z,3.50
2019-05-17T14:20:04.729Z,3.97
2019-05-17T14:22:35.941Z,4.10
2019-05-17T14:25:04.311Z,3.90
2019-05-17T14:27:32.777Z,4.20
2019-05-17T14:30:01.180Z,4.90
2019-05-17T14:32:29.624Z,5.13
2019-05-17T14:34:58.161Z,4.60
2019-05-17T14:37:26.595Z,4.43
2019-05-17T14:39:55.026Z,4.27
2019-05-17T14:42:23.502Z,3.33
2019-05-17T14:44:51.924Z,4.07
2019-05-17T14:47:20.487Z,3.77
2019-05-17T14:49:51.165Z,3.90
2019-05-17T14:52:19.144Z,4.40
2019-05-17T14:54:47.592Z,3.63
2019-05-17T14:57:16.379Z,4.07
2019-05-17T14:59:44.806Z,4.07
2019-05-17T15:02:13.311Z,4.07
2019-05-17T15:04:42.698Z,4.33
2019-05-17T15:07:11.483Z,4.17
2019-05-17T15:09:40.045Z,4.27
2019-05-17T15:12:08.594Z,3.83
2019-05-17T15:14:37.038Z,4.00
2019-05-17T15:17:05.823Z,4.40
2019-05-17T15:19:34.251Z,4.30
2019-05-17T15:22:02.890Z,3.83
2019-05-17T15:24:31.294Z,4.30
2019-05-17T15:27:05.599Z,3.97
2019-05-17T15:29:30.896Z,2.83
2019-05-17T15:31:59.335Z,3.43
2019-05-17T15:34:27.755Z,3.90
2019-05-17T15:36:56.202Z,4.00
2019-05-17T15:39:24.691Z,3.60
2019-05-17T15:41:53.197Z,3.90
2019-05-17T15:44:22.685Z,2.63
2019-05-17T15:46:51.121Z,3.80
2019-05-17T15:49:19.542Z,3.97
2019-05-17T15:51:47.986Z,4.00
2019-05-17T15:54:16.411Z,3.87
2019-05-17T15:56:44.859Z,3.10
2019-05-17T15:59:13.285Z,3.00
2019-05-17T16:01:41.745Z,3.50
2019-05-17T16:04:10.163Z,3.10
2019-05-17T16:06:38.695Z,3.60
2019-05-17T16:09:07.267Z,4.40
2019-05-17T16:11:35.711Z,3.53
2019-05-17T16:14:04.283Z,3.87
2019-05-17T16:16:32.753Z,3.87
2019-05-17T16:19:01.246Z,3.30
2019-05-17T16:21:29.692Z,3.43
2019-05-17T16:23:58.118Z,3.33
2019-05-17T16:26:26.581Z,3.10
2019-05-17T16:28:55.011Z,4.13
2019-05-17T16:31:23.445Z,3.23
2019-05-17T16:33:51.895Z,3.67
2019-05-17T16:36:20.392Z,3.27
2019-05-17T16:38:48.847Z,3.10
2019-05-17T16:41:17.288Z,3.87
2019-05-17T16:43:45.792Z,3.50
2019-05-17T16:46:14.309Z,2.70
2019-05-17T16:48:42.774Z,3.50
2019-05-17T16:51:11.287Z,3.23
2019-05-17T16:53:39.735Z,2.73
2019-05-17T16:56:08.220Z,19.60
2019-05-17T16:58:36.686Z,5.87
2019-05-17T17:01:05.234Z,2.97
2019-05-17T17:03:43.684Z,4.33
2019-05-17T17:06:04.079Z,4.00
2019-05-17T17:08:32.596Z,2.63
2019-05-17T17:11:01.036Z,2.50
2019-05-17T17:13:33.149Z,2.50
2019-05-17T17:15:59.706Z,2.50
2019-05-17T17:18:28.167Z,2.60
2019-05-17T17:20:56.645Z,2.50
2019-05-17T17:23:25.099Z,2.40
2019-05-17T17:25:53.528Z,2.10
2019-05-17T17:28:25.354Z,2.17
2019-05-17T17:30:52.289Z,2.80
2019-05-17T17:33:20.748Z,2.57
2019-05-17T17:35:49.184Z,2.20
2019-05-17T17:38:17.630Z,2.40
2019-05-17T17:40:46.069Z,2.07
2019-05-17T17:43:16.071Z,2.17
2019-05-17T17:45:44.490Z,2.07
2019-05-17T17:48:12.990Z,2.07
2019-05-17T17:50:41.428Z,2.20
2019-05-17T17:53:09.868Z,2.17
2019-05-17T17:55:38.321Z,2.40
2019-05-17T17:58:06.989Z,2.67
2019-05-17T18:00:35.490Z,3.07
2019-05-17T18:03:03.968Z,2.40
2019-05-17T18:05:32.389Z,2.87
2019-05-17T18:08:00.846Z,2.40
2019-05-17T18:10:32.221Z,2.00
2019-05-17T18:13:00.998Z,2.17
2019-05-17T18:15:38.587Z,2.07
2019-05-17T18:18:07.131Z,3.40
2019-05-17T18:20:35.637Z,4.70
2019-05-17T18:23:04.795Z,4.93
2019-05-17T18:25:33.498Z,3.73
2019-05-17T18:28:02.013Z,3.33
2019-05-17T18:30:30.488Z,2.60
2019-05-17T18:32:58.948Z,2.73
2019-05-17T18:35:27.453Z,3.07
2019-05-17T18:37:55.931Z,2.43
2019-05-17T18:40:24.419Z,2.40
2019-05-17T18:42:53.016Z,2.80
2019-05-17T18:45:21.514Z,2.20
2019-05-17T18:47:50.544Z,1.57
2019-05-17T18:50:19.286Z,1.00
2019-05-17T18:52:47.782Z,1.13
2019-05-17T18:55:16.412Z,1.30
2019-05-17T18:57:44.863Z,1.13
2019-05-17T19:00:13.726Z,1.20
2019-05-17T19:02:42.185Z,1.23
2019-05-17T19:05:10.870Z,1.33
2019-05-17T19:07:39.360Z,1.30
2019-05-17T19:10:08.048Z,1.20
2019-05-17T19:12:36.470Z,1.87
2019-05-17T19:15:06.928Z,1.70
2019-05-17T19:17:35.362Z,1.17
2019-05-17T19:20:05.539Z,1.10
2019-05-17T19:22:33.961Z,1.40
2019-05-17T19:25:02.400Z,1.47
2019-05-17T19:27:30.826Z,2.30
2019-05-17T19:29:59.270Z,1.40
2019-05-17T19:32:27.702Z,1.30
2019-05-17T19:34:56.130Z,1.13
2019-05-17T19:37:24.550Z,1.40
2019-05-17T19:39:53.006Z,1.80
2019-05-17T19:42:23.188Z,1.30
2019-05-17T19:44:59.106Z,1.90
2019-05-17T19:47:21.903Z,1.80
2019-05-17T19:49:50.398Z,1.20
2019-05-17T19:52:18.831Z,1.40
2019-05-17T19:54:47.274Z,1.43
2019-05-17T19:57:15.699Z,1.20
2019-05-17T19:59:44.140Z,1.60
2019-05-17T20:02:12.554Z,1.40
2019-05-17T20:04:41.004Z,1.60
2019-05-17T20:07:09.424Z,1.70
2019-05-17T20:09:37.867Z,1.80
2019-05-17T20:12:06.302Z,1.50
2019-05-17T20:14:34.755Z,1.90
2019-05-17T20:17:03.169Z,1.83
2019-05-17T20:19:31.623Z,2.10
2019-05-17T20:22:00.046Z,1.97
2019-05-17T20:24:28.513Z,1.87
2019-05-17T20:26:56.941Z,2.40
2019-05-17T20:29:25.384Z,1.90
2019-05-17T20:31:53.812Z,1.93
2019-05-17T20:34:22.254Z,1.90
2019-05-17T20:36:50.674Z,2.33
2019-05-17T20:39:19.110Z,2.17
2019-05-17T20:41:47.539Z,1.93
2019-05-17T20:44:15.978Z,2.27
2019-05-17T20:46:44.414Z,2.17
2019-05-17T20:49:13.604Z,2.53
2019-05-17T20:51:42.027Z,2.50
2019-05-17T20:54:10.765Z,2.50
2019-05-17T20:56:39.203Z,3.80
2019-05-17T20:59:07.634Z,3.60
2019-05-17T21:01:36.058Z,4.43
2019-05-17T21:04:04.576Z,7.00
2019-05-17T21:06:33.068Z,6.57
2019-05-17T21:09:01.509Z,5.50
2019-05-17T21:11:29.930Z,6.50
2019-05-17T21:13:58.380Z,3.63
2019-05-17T21:16:26.811Z,3.60
2019-05-17T21:18:55.294Z,4.00
2019-05-17T21:21:23.798Z,3.60
2019-05-17T21:23:52.242Z,2.57
2019-05-17T21:26:20.667Z,2.93
2019-05-17T21:28:49.093Z,3.27
2019-05-17T21:31:17.541Z,3.13
2019-05-17T21:33:45.959Z,4.90
2019-05-17T21:36:14.399Z,3.13
2019-05-17T21:38:42.834Z,3.40
2019-05-17T21:41:11.298Z,4.67
2019-05-17T21:43:39.761Z,3.60
2019-05-17T21:46:08.294Z,4.13
2019-05-17T21:48:36.723Z,3.97
2019-05-17T21:51:05.174Z,4.90
2019-05-17T21:53:33.599Z,2.93
2019-05-17T21:56:02.040Z,2.90
2019-05-17T21:58:30.469Z,3.60
2019-05-17T22:01:11.346Z,3.00
2019-05-17T22:03:39.773Z,3.70
2019-05-17T22:06:29.029Z,3.80
2019-05-17T22:08:57.484Z,3.73
2019-05-17T22:11:26.114Z,3.10
2019-05-17T22:13:54.538Z,3.50
2019-05-17T22:16:22.975Z,2.77
2019-05-17T22:18:51.404Z,2.63
2019-05-17T22:21:19.848Z,3.43
2019-05-17T22:23:48.275Z,3.40
2019-05-17T22:26:16.756Z,2.70
2019-05-17T22:28:45.220Z,2.90
2019-05-17T22:31:13.656Z,2.23
2019-05-17T22:33:42.090Z,2.20
2019-05-17T22:36:10.571Z,2.80
2019-05-17T22:38:39.068Z,2.80
2019-05-17T22:41:07.506Z,3.57
2019-05-17T22:43:35.952Z,3.00
2019-05-17T22:46:04.457Z,2.77
2019-05-17T22:48:32.882Z,2.57
2019-05-17T22:51:01.328Z,2.60
2019-05-17T22:53:30.003Z,2.93
2019-05-17T22:55:58.441Z,2.97
2019-05-17T22:58:26.939Z,2.97
2019-05-17T23:00:55.375Z,2.27
2019-05-17T23:03:23.807Z,3.70
2019-05-17T23:05:52.238Z,2.00
2019-05-17T23:08:20.659Z,2.50
2019-05-17T23:10:49.107Z,2.40
2019-05-17T23:13:17.526Z,3.20
2019-05-17T23:16:02.048Z,3.00
2019-05-17T23:18:34.009Z,2.80
2019-05-17T23:21:02.625Z,2.63
2019-05-17T23:23:31.164Z,2.57
2019-05-17T23:25:59.672Z,2.93
2019-05-17T23:28:28.115Z,2.57
2019-05-17T23:30:56.558Z,2.60
2019-05-17T23:33:25.001Z,2.73
2019-05-17T23:35:53.430Z,2.90
2019-05-17T23:38:21.859Z,3.40
2019-05-17T23:40:50.308Z,3.27
2019-05-17T23:43:18.735Z,3.77
2019-05-17T23:45:47.170Z,4.30
2019-05-17T23:48:15.594Z,3.77
2019-05-17T23:50:44.030Z,4.03
2019-05-17T23:53:12.460Z,5.03
2019-05-17T23:55:41.171Z,5.17
2019-05-17T23:58:09.638Z,5.07
